»·PEaware :: N117WN KSAC-KSFO

N117WN :: KSAC-KSFO

FLIGHT INFORMATION

Flight Status: Arrived
Operator: Privately registered:
United States
More flights under this callsign
Pilot: Todd T. (13067)
Aircraft: BEECH AIRCRAFT BARON
(BE58)
More flights by this aircraft type
Origin: KSAC Sacramento Executive
United States
Destination: KSFO San Francisco Intl
United States
More flights between these airports :: More routes between these airports
Route: +SAC HAIRE RISTI1
File this flight plan on PilotEdge
Remarks: RNAV Y 28R
Altitude:
(Current/Filed)
8,000ft
Speed:
(Current/Filed)
0kts
Departed: 12-Aug-18 06:33 PM
Arrived: 12-Aug-18 07:14 PM
Distance/Time
Traveled:
68nm/0:41
Distance/Time
To Go:
Arrived

Flight Plot

Page will automatically refresh every two minutes.

Flight plan parsing failed; only flown route is shown


Map Options




Map Legend


Flown Route
Filed Route
Departure Airport
Arrival Airport
Navaid (VOR, NDB)
Fix

Horizontal Profiles

Position Reports

Time Latitude Longitude Heading Altitude Ground
Speed
12-Aug-18 18:13 38.511343 -121.499849 112 22ft 0kts
12-Aug-18 18:14 38.511343 -121.499849 112 22ft 0kts
12-Aug-18 18:15 38.511343 -121.499849 112 22ft 0kts
12-Aug-18 18:16 38.511343 -121.499849 112 22ft 0kts
12-Aug-18 18:17 38.511343 -121.499849 112 22ft 0kts
12-Aug-18 18:18 38.511343 -121.499849 112 22ft 0kts
12-Aug-18 18:19 38.511343 -121.499849 112 22ft 0kts
12-Aug-18 18:20 38.511343 -121.499849 112 22ft 0kts
12-Aug-18 18:21 38.511343 -121.499849 112 22ft 0kts
12-Aug-18 18:22 38.511343 -121.499849 112 22ft 0kts
12-Aug-18 18:23 38.511343 -121.499849 112 22ft 0kts
12-Aug-18 18:24 38.511343 -121.499849 112 22ft 0kts
12-Aug-18 18:25 38.511343 -121.499849 112 22ft 0kts
12-Aug-18 18:26 38.511343 -121.499849 112 22ft 0kts
12-Aug-18 18:27 38.511343 -121.499849 112 22ft 0kts
12-Aug-18 18:28 38.511486 -121.498691 76 22ft 10kts
12-Aug-18 18:29 38.514770 -121.494474 33 22ft 27kts
12-Aug-18 18:30 38.519160 -121.490288 100 22ft 0kts
12-Aug-18 18:31 38.519160 -121.490288 100 22ft 0kts
12-Aug-18 18:32 38.519160 -121.490288 100 22ft 0kts
12-Aug-18 18:33 38.519080 -121.489718 110 22ft 12kts
12-Aug-18 18:34 38.503827 -121.502468 211 518ft 123kts
12-Aug-18 18:35 38.474141 -121.528072 211 1967ft 136kts
12-Aug-18 18:36 38.437650 -121.530312 178 3200ft 143kts
12-Aug-18 18:37 38.399532 -121.527876 176 4442ft 132kts
12-Aug-18 18:38 38.363293 -121.524471 177 5593ft 130kts
12-Aug-18 18:39 38.327233 -121.521065 177 6674ft 130kts
12-Aug-18 18:40 38.291169 -121.517571 177 7701ft 130kts
12-Aug-18 18:41 38.254908 -121.514080 176 8610ft 138kts
12-Aug-18 18:42 38.213920 -121.510110 176 9038ft 166kts
12-Aug-18 18:43 38.165092 -121.505445 176 9031ft 181kts
12-Aug-18 18:44 38.114203 -121.500515 176 9029ft 185kts
12-Aug-18 18:45 38.062780 -121.495507 176 9028ft 187kts
12-Aug-18 18:46 38.010507 -121.490341 178 9029ft 189kts
12-Aug-18 18:47 37.958778 -121.485458 178 9054ft 184kts
12-Aug-18 18:48 37.907959 -121.480562 177 9054ft 182kts
12-Aug-18 18:49 37.859113 -121.474195 176 9055ft 182kts
12-Aug-18 18:50 37.808718 -121.467590 176 9055ft 182kts
12-Aug-18 18:51 37.758594 -121.461027 176 9055ft 182kts
12-Aug-18 18:52 37.708212 -121.454441 176 9055ft 182kts
12-Aug-18 18:53 37.659371 -121.456084 224 9068ft 177kts
12-Aug-18 18:54 37.627266 -121.503520 231 9055ft 178kts
12-Aug-18 18:55 37.596078 -121.552467 233 8969ft 175kts
12-Aug-18 18:56 37.566725 -121.599348 234 8971ft 168kts
12-Aug-18 18:57 37.536700 -121.644651 233 9000ft 169kts
12-Aug-18 18:58 37.507718 -121.690678 237 8443ft 168kts
12-Aug-18 18:59 37.491092 -121.742224 267 7737ft 155kts
12-Aug-18 19:00 37.489578 -121.785211 271 7902ft 145kts
12-Aug-18 19:01 37.486779 -121.845849 266 6924ft 150kts
12-Aug-18 19:02 37.483383 -121.888636 265 6268ft 145kts
12-Aug-18 19:03 37.479457 -121.941111 266 5917ft 155kts
12-Aug-18 19:04 37.474105 -122.002880 266 5377ft 150kts
12-Aug-18 19:05 37.482314 -122.044596 290 4796ft 144kts
12-Aug-18 19:06 37.498513 -122.090283 301 4174ft 140kts
12-Aug-18 19:07 37.523166 -122.138625 300 3687ft 140kts
12-Aug-18 19:08 37.536439 -122.175967 294 3195ft 138kts
12-Aug-18 19:09 37.554198 -122.218665 302 2636ft 136kts
12-Aug-18 19:10 37.571964 -122.256165 297 2002ft 123kts
12-Aug-18 19:11 37.586167 -122.294629 301 1280ft 120kts
12-Aug-18 19:12 37.602277 -122.331152 294 575ft 114kts
12-Aug-18 19:13 37.615711 -122.362249 297 14ft 71kts
12-Aug-18 19:14 37.620441 -122.373341 297 14ft 43kts
12-Aug-18 19:15 37.625173 -122.381318 327 14ft 5kts
12-Aug-18 19:16 37.627473 -122.386669 298 14ft 24kts
12-Aug-18 19:17 37.628468 -122.387284 26 14ft 0kts
12-Aug-18 19:18 37.628468 -122.387285 26 14ft 0kts

Navigation Log

Ident Type
Flight plan parsing failed, navigation log unavailable